sensor_id;sensor_type;location;lat;lon;timestamp;pressure;altitude;pressure_sealevel;temperature;humidity
48352;BME280;34163;49.314;6.752;2022-12-04T00:01:22;99311.47;;;7.81;100.00
48352;BME280;34163;49.314;6.752;2022-12-04T00:06:26;99316.94;;;7.99;100.00
48352;BME280;34163;49.314;6.752;2022-12-04T00:08:55;99304.13;;;7.90;100.00
48352;BME280;34163;49.314;6.752;2022-12-04T00:11:22;99314.81;;;7.87;100.00
48352;BME280;34163;49.314;6.752;2022-12-04T00:13:50;99308.69;;;7.85;100.00
48352;BME280;34163;49.314;6.752;2022-12-04T00:16:24;99307.00;;;7.84;100.00
48352;BME280;34163;49.314;6.752;2022-12-04T00:18:52;99309.63;;;7.84;100.00
48352;BME280;34163;49.314;6.752;2022-12-04T00:21:18;99305.34;;;7.81;100.00
48352;BME280;34163;49.314;6.752;2022-12-04T00:23:44;99304.38;;;7.84;100.00
48352;BME280;34163;49.314;6.752;2022-12-04T00:26:11;99302.63;;;7.82;100.00
48352;BME280;34163;49.314;6.752;2022-12-04T00:28:37;99299.16;;;7.82;100.00
48352;BME280;34163;49.314;6.752;2022-12-04T00:31:06;99293.00;;;7.81;100.00
48352;BME280;34163;49.314;6.752;2022-12-04T00:33:54;99296.56;;;7.80;100.00
48352;BME280;34163;49.314;6.752;2022-12-04T00:36:39;99294.78;;;7.81;100.00
48352;BME280;34163;49.314;6.752;2022-12-04T00:39:25;99299.22;;;7.80;100.00
48352;BME280;34163;49.314;6.752;2022-12-04T00:41:58;99302.63;;;7.82;100.00
48352;BME280;34163;49.314;6.752;2022-12-04T00:44:26;99310.56;;;7.82;100.00
48352;BME280;34163;49.314;6.752;2022-12-04T00:46:51;99303.47;;;7.83;100.00
48352;BME280;34163;49.314;6.752;2022-12-04T00:49:16;99303.47;;;7.83;100.00
48352;BME280;34163;49.314;6.752;2022-12-04T00:51:41;99307.06;;;7.82;100.00
48352;BME280;34163;49.314;6.752;2022-12-04T00:54:07;99293.81;;;7.84;100.00
48352;BME280;34163;49.314;6.752;2022-12-04T00:56:35;99288.66;;;7.80;100.00
48352;BME280;34163;49.314;6.752;2022-12-04T00:59:05;99293.94;;;7.80;100.00
48352;BME280;34163;49.314;6.752;2022-12-04T01:01:34;99295.63;;;7.81;100.00
48352;BME280;34163;49.314;6.752;2022-12-04T01:04:08;99299.22;;;7.80;100.00
48352;BME280;34163;49.314;6.752;2022-12-04T01:06:37;99309.75;;;7.80;100.00
48352;BME280;34163;49.314;6.752;2022-12-04T01:09:23;99306.19;;;7.81;100.00
48352;BME280;34163;49.314;6.752;2022-12-04T01:11:48;99313.19;;;7.82;100.00
48352;BME280;34163;49.314;6.752;2022-12-04T01:14:14;99314.91;;;7.84;100.00
48352;BME280;34163;49.314;6.752;2022-12-04T01:16:46;99320.25;;;7.82;100.00
48352;BME280;34163;49.314;6.752;2022-12-04T01:19:12;99324.59;;;7.83;100.00
48352;BME280;34163;49.314;6.752;2022-12-04T01:21:37;99321.03;;;7.84;100.00
48352;BME280;34163;49.314;6.752;2022-12-04T01:24:03;99321.84;;;7.86;100.00
48352;BME280;34163;49.314;6.752;2022-12-04T01:26:28;99319.81;;;7.93;100.00
48352;BME280;34163;49.314;6.752;2022-12-04T01:28:54;99319.19;;;7.86;100.00
48352;BME280;34163;49.314;6.752;2022-12-04T01:31:19;99318.34;;;7.86;100.00
48352;BME280;34163;49.314;6.752;2022-12-04T01:33:45;99317.50;;;7.85;100.00
48352;BME280;34163;49.314;6.752;2022-12-04T01:36:16;99315.72;;;7.86;100.00
48352;BME280;34163;49.314;6.752;2022-12-04T01:38:51;99315.75;;;7.84;100.00
48352;BME280;34163;49.314;6.752;2022-12-04T01:41:18;99320.19;;;7.84;100.00
48352;BME280;34163;49.314;6.752;2022-12-04T01:46:58;99313.19;;;7.82;100.00
48352;BME280;34163;49.314;6.752;2022-12-04T01:49:30;99316.63;;;7.85;100.00
48352;BME280;34163;49.314;6.752;2022-12-04T01:52:04;99312.28;;;7.84;100.00
48352;BME280;34163;49.314;6.752;2022-12-04T01:54:41;99309.63;;;7.84;100.00
48352;BME280;34163;49.314;6.752;2022-12-04T01:57:15;99306.94;;;7.85;100.00
48352;BME280;34163;49.314;6.752;2022-12-04T01:59:48;99306.13;;;7.83;100.00
48352;BME280;34163;49.314;6.752;2022-12-04T02:02:16;99301.78;;;7.82;100.00
48352;BME280;34163;49.314;6.752;2022-12-04T02:04:43;99290.34;;;7.81;100.00
48352;BME280;34163;49.314;6.752;2022-12-04T02:07:09;99294.72;;;7.82;100.00
48352;BME280;34163;49.314;6.752;2022-12-04T02:09:34;99303.47;;;7.83;100.00
48352;BME280;34163;49.314;6.752;2022-12-04T02:12:13;99298.28;;;7.81;100.00
48352;BME280;34163;49.314;6.752;2022-12-04T02:15:06;99295.56;;;7.83;100.00
48352;BME280;34163;49.314;6.752;2022-12-04T02:17:43;99294.72;;;7.82;100.00
48352;BME280;34163;49.314;6.752;2022-12-04T02:25:28;99297.38;;;7.82;100.00
48352;BME280;34163;49.314;6.752;2022-12-04T02:28:09;99297.38;;;7.82;100.00
48352;BME280;34163;49.314;6.752;2022-12-04T02:30:38;99306.19;;;7.81;100.00
48352;BME280;34163;49.314;6.752;2022-12-04T02:33:26;99306.19;;;7.81;100.00
48352;BME280;34163;49.314;6.752;2022-12-04T02:36:24;99300.06;;;7.81;100.00
48352;BME280;34163;49.314;6.752;2022-12-04T02:38:43;99303.53;;;7.81;100.00
48352;BME280;34163;49.314;6.752;2022-12-04T02:41:19;99305.34;;;7.81;100.00
48352;BME280;34163;49.314;6.752;2022-12-04T02:43:50;99309.75;;;7.80;100.00
48352;BME280;34163;49.314;6.752;2022-12-04T05:42:19;99334.16;;;7.86;100.00
48352;BME280;34163;49.314;6.752;2022-12-04T05:44:44;99327.16;;;7.85;100.00
48352;BME280;34163;49.314;6.752;2022-12-04T05:47:09;99331.59;;;7.84;100.00
48352;BME280;34163;49.314;6.752;2022-12-04T05:49:44;99333.31;;;7.85;100.00
48352;BME280;34163;49.314;6.752;2022-12-04T05:52:09;99332.44;;;7.85;100.00
48352;BME280;34163;49.314;6.752;2022-12-04T05:54:34;99331.59;;;7.84;100.00
48352;BME280;34163;49.314;6.752;2022-12-04T05:56:59;99332.44;;;7.85;100.00
48352;BME280;34163;49.314;6.752;2022-12-04T05:59:25;99326.31;;;7.84;100.00
48352;BME280;34163;49.314;6.752;2022-12-04T06:01:50;99325.47;;;7.84;100.00
48352;BME280;34163;49.314;6.752;2022-12-04T06:04:16;99323.69;;;7.84;100.00
48352;BME280;34163;49.314;6.752;2022-12-04T06:06:41;99313.06;;;7.86;100.00
48352;BME280;34163;49.314;6.752;2022-12-04T06:09:06;99313.97;;;7.85;100.00
48352;BME280;34163;49.314;6.752;2022-12-04T06:11:33;99306.94;;;7.85;100.00
48352;BME280;34163;49.314;6.752;2022-12-04T06:13:59;99305.16;;;7.86;100.00
48352;BME280;34163;49.314;6.752;2022-12-04T06:16:26;99296.41;;;7.85;100.00
48352;BME280;34163;49.314;6.752;2022-12-04T06:18:52;99306.06;;;7.85;100.00
48352;BME280;34163;49.314;6.752;2022-12-04T06:21:18;99299.94;;;7.84;100.00
48352;BME280;34163;49.314;6.752;2022-12-04T06:23:43;99307.78;;;7.86;100.00
48352;BME280;34163;49.314;6.752;2022-12-04T06:26:09;99302.63;;;7.82;100.00
48352;BME280;34163;49.314;6.752;2022-12-04T06:28:34;99309.63;;;7.84;100.00
48352;BME280;34163;49.314;6.752;2022-12-04T06:31:00;99311.34;;;7.85;100.00
48352;BME280;34163;49.314;6.752;2022-12-04T06:33:26;99319.31;;;7.83;100.00
48352;BME280;34163;49.314;6.752;2022-12-04T06:36:01;99322.81;;;7.84;100.00
48352;BME280;34163;49.314;6.752;2022-12-04T06:38:27;99329.81;;;7.85;100.00
48352;BME280;34163;49.314;6.752;2022-12-04T06:40:52;99328.03;;;7.85;100.00
48352;BME280;34163;49.314;6.752;2022-12-04T06:43:18;99328.91;;;7.86;100.00
48352;BME280;34163;49.314;6.752;2022-12-04T06:45:43;99331.66;;;7.82;100.00
48352;BME280;34163;49.314;6.752;2022-12-04T06:48:08;99330.75;;;7.84;100.00
48352;BME280;34163;49.314;6.752;2022-12-04T06:50:34;99325.47;;;7.84;100.00
48352;BME280;34163;49.314;6.752;2022-12-04T06:52:59;99330.69;;;7.85;100.00
48352;BME280;34163;49.314;6.752;2022-12-04T06:55:24;99321.03;;;7.84;100.00
48352;BME280;34163;49.314;6.752;2022-12-04T06:57:49;99327.16;;;7.85;100.00
48352;BME280;34163;49.314;6.752;2022-12-04T07:00:15;99326.25;;;7.86;100.00
48352;BME280;34163;49.314;6.752;2022-12-04T07:02:40;99326.25;;;7.86;100.00
48352;BME280;34163;49.314;6.752;2022-12-04T07:05:05;99326.25;;;7.86;100.00
48352;BME280;34163;49.314;6.752;2022-12-04T07:07:31;99323.63;;;7.86;100.00
48352;BME280;34163;49.314;6.752;2022-12-04T07:09:56;99321.88;;;7.85;100.00
48352;BME280;34163;49.314;6.752;2022-12-04T07:12:21;99324.47;;;7.86;100.00
48352;BME280;34163;49.314;6.752;2022-12-04T07:14:46;99327.06;;;7.88;100.00
48352;BME280;34163;49.314;6.752;2022-12-04T07:17:12;99329.75;;;7.86;100.00
48352;BME280;34163;49.314;6.752;2022-12-04T07:19:37;99326.19;;;7.87;100.00
48352;BME280;34163;49.314;6.752;2022-12-04T07:22:02;99328.91;;;7.86;100.00
48352;BME280;34163;49.314;6.752;2022-12-04T07:24:28;99335.91;;;7.87;100.00
48352;BME280;34163;49.314;6.752;2022-12-04T07:26:53;99342.03;;;7.87;100.00
48352;BME280;34163;49.314;6.752;2022-12-04T07:29:18;99337.59;;;7.88;100.00
48352;BME280;34163;49.314;6.752;2022-12-04T07:31:43;99340.19;;;7.89;100.00
48352;BME280;34163;49.314;6.752;2022-12-04T07:34:09;99344.59;;;7.89;100.00
48352;BME280;34163;49.314;6.752;2022-12-04T07:36:34;99347.25;;;7.89;100.00
48352;BME280;34163;49.314;6.752;2022-12-04T07:38:59;99351.63;;;7.90;100.00
48352;BME280;34163;49.314;6.752;2022-12-04T07:41:24;99355.16;;;7.89;100.00
48352;BME280;34163;49.314;6.752;2022-12-04T07:43:50;99350.72;;;7.89;100.00
48352;BME280;34163;49.314;6.752;2022-12-04T07:46:20;99347.25;;;7.89;100.00
48352;BME280;34163;49.314;6.752;2022-12-04T07:48:45;99352.47;;;7.90;100.00
48352;BME280;34163;49.314;6.752;2022-12-04T07:51:12;99344.53;;;7.90;100.00
48352;BME280;34163;49.314;6.752;2022-12-04T07:53:37;99347.19;;;7.90;100.00
48352;BME280;34163;49.314;6.752;2022-12-04T07:56:03;99352.41;;;7.92;100.00
48352;BME280;34163;49.314;6.752;2022-12-04T14:00:35;99246.03;;;8.12;100.00
48352;BME280;34163;49.314;6.752;2022-12-04T14:03:18;99245.19;;;8.11;100.00
48352;BME280;34163;49.314;6.752;2022-12-04T14:05:45;99244.28;;;8.12;100.00
48352;BME280;34163;49.314;6.752;2022-12-04T14:10:43;99243.47;;;8.10;100.00
48352;BME280;34163;49.314;6.752;2022-12-04T14:15:39;99242.56;;;8.11;100.00
48352;BME280;34163;49.314;6.752;2022-12-04T14:20:37;99245.13;;;8.13;100.00
48352;BME280;34163;49.314;6.752;2022-12-04T14:23:07;99245.06;;;8.14;100.00
48352;BME280;34163;49.314;6.752;2022-12-04T14:25:34;99238.00;;;8.15;100.00
48352;BME280;34163;49.314;6.752;2022-12-04T14:28:10;99241.59;;;8.14;100.00
48352;BME280;34163;49.314;6.752;2022-12-04T14:30:38;99243.34;;;8.13;100.00
48352;BME280;34163;49.314;6.752;2022-12-04T14:33:06;99249.50;;;8.14;100.00
48352;BME280;34163;49.314;6.752;2022-12-04T14:35:32;99249.50;;;8.14;100.00
48352;BME280;34163;49.314;6.752;2022-12-04T14:37:59;99249.50;;;8.14;100.00
48352;BME280;34163;49.314;6.752;2022-12-04T14:42:59;99246.03;;;8.12;100.00
48352;BME280;34163;49.314;6.752;2022-12-04T14:55:40;99245.06;;;8.14;100.00
48352;BME280;34163;49.314;6.752;2022-12-04T14:58:20;99243.34;;;8.13;100.00
48352;BME280;34163;49.314;6.752;2022-12-04T15:00:58;99249.56;;;8.12;100.00
48352;BME280;34163;49.314;6.752;2022-12-04T15:03:23;99239.00;;;8.12;100.00
48352;BME280;34163;49.314;6.752;2022-12-04T15:05:50;99245.06;;;8.14;100.00
48352;BME280;34163;49.314;6.752;2022-12-04T15:08:16;99247.72;;;8.14;100.00
48352;BME280;34163;49.314;6.752;2022-12-04T15:10:48;99241.66;;;8.12;100.00
48352;BME280;34163;49.314;6.752;2022-12-04T15:13:32;99251.31;;;8.12;100.00
48352;BME280;34163;49.314;6.752;2022-12-04T15:19:01;99236.38;;;8.12;100.00
48352;BME280;34163;49.314;6.752;2022-12-04T15:21:29;99243.34;;;8.13;100.00
48352;BME280;34163;49.314;6.752;2022-12-04T15:23:58;99244.22;;;8.14;100.00
48352;BME280;34163;49.314;6.752;2022-12-04T15:26:23;99242.50;;;8.13;100.00
48352;BME280;34163;49.314;6.752;2022-12-04T15:31:36;99255.50;;;8.17;100.00
48352;BME280;34163;49.314;6.752;2022-12-04T15:34:07;99259.13;;;8.15;100.00
48352;BME280;34163;49.314;6.752;2022-12-04T15:38:58;99251.25;;;8.13;100.00
48352;BME280;34163;49.314;6.752;2022-12-04T15:41:34;99252.19;;;8.12;100.00
48352;BME280;34163;49.314;6.752;2022-12-04T15:44:00;99252.19;;;8.12;100.00
48352;BME280;34163;49.314;6.752;2022-12-04T15:46:30;99250.41;;;8.13;100.00
48352;BME280;34163;49.314;6.752;2022-12-04T15:49:06;99244.22;;;8.14;100.00
48352;BME280;34163;49.314;6.752;2022-12-04T15:51:38;99244.28;;;8.12;100.00
48352;BME280;34163;49.314;6.752;2022-12-04T15:54:03;99245.19;;;8.11;100.00
48352;BME280;34163;49.314;6.752;2022-12-04T15:56:29;99237.22;;;8.13;100.00
48352;BME280;34163;49.314;6.752;2022-12-04T15:58:58;99238.13;;;8.12;100.00
48352;BME280;34163;49.314;6.752;2022-12-04T16:01:25;99243.34;;;8.13;100.00
48352;BME280;34163;49.314;6.752;2022-12-04T16:03:54;99238.06;;;8.13;100.00
48352;BME280;34163;49.314;6.752;2022-12-04T16:06:23;99238.06;;;8.13;100.00
48352;BME280;34163;49.314;6.752;2022-12-04T16:09:11;99241.66;;;8.12;100.00
48352;BME280;34163;49.314;6.752;2022-12-04T16:11:35;99242.56;;;8.11;100.00
48352;BME280;34163;49.314;6.752;2022-12-04T16:14:03;99245.97;;;8.13;100.00
48352;BME280;34163;49.314;6.752;2022-12-04T16:16:30;99244.28;;;8.12;100.00
48352;BME280;34163;49.314;6.752;2022-12-04T16:18:59;99245.97;;;8.13;100.00
48352;BME280;34163;49.314;6.752;2022-12-04T16:21:29;99250.34;;;8.14;100.00
48352;BME280;34163;49.314;6.752;2022-12-04T16:23:59;99244.28;;;8.12;100.00
48352;BME280;34163;49.314;6.752;2022-12-04T16:26:25;99256.53;;;8.13;100.00
48352;BME280;34163;49.314;6.752;2022-12-04T16:28:50;99254.78;;;8.14;100.00
48352;BME280;34163;49.314;6.752;2022-12-04T16:31:18;99248.63;;;8.13;100.00
48352;BME280;34163;49.314;6.752;2022-12-04T16:33:46;99253.00;;;8.14;100.00
48352;BME280;34163;49.314;6.752;2022-12-04T16:36:11;99253.00;;;8.14;100.00
48352;BME280;34163;49.314;6.752;2022-12-04T16:38:37;99253.84;;;8.15;100.00
48352;BME280;34163;49.314;6.752;2022-12-04T16:41:05;99251.19;;;8.15;100.00
48352;BME280;34163;49.314;6.752;2022-12-04T16:43:31;99255.63;;;8.14;100.00
48352;BME280;34163;49.314;6.752;2022-12-04T16:45:58;99256.81;;;8.28;100.00
48352;BME280;34163;49.314;6.752;2022-12-04T16:48:24;99250.94;;;8.21;100.00
48352;BME280;34163;49.314;6.752;2022-12-04T16:50:51;99244.94;;;8.17;100.00
48352;BME280;34163;49.314;6.752;2022-12-04T16:53:19;99252.88;;;8.17;100.00
48352;BME280;34163;49.314;6.752;2022-12-04T16:55:46;99248.50;;;8.16;100.00
48352;BME280;34163;49.314;6.752;2022-12-04T16:58:14;99246.81;;;8.15;100.00
48352;BME280;34163;49.314;6.752;2022-12-04T17:00:40;99242.44;;;8.14;100.00
48352;BME280;34163;49.314;6.752;2022-12-04T17:03:17;99245.84;;;8.16;100.00
48352;BME280;34163;49.314;6.752;2022-12-04T17:05:45;99244.22;;;8.14;100.00
48352;BME280;34163;49.314;6.752;2022-12-04T17:08:16;99252.09;;;8.15;100.00
48352;BME280;34163;49.314;6.752;2022-12-04T17:10:41;99250.28;;;8.16;100.00
48352;BME280;34163;49.314;6.752;2022-12-04T17:13:09;99255.56;;;8.16;100.00
48352;BME280;34163;49.314;6.752;2022-12-04T17:15:37;99256.41;;;8.16;100.00
48352;BME280;34163;49.314;6.752;2022-12-04T17:18:05;99252.88;;;8.17;100.00
48352;BME280;34163;49.314;6.752;2022-12-04T17:20:32;99255.50;;;8.17;100.00
48352;BME280;34163;49.314;6.752;2022-12-04T17:22:58;99258.22;;;8.16;100.00
48352;BME280;34163;49.314;6.752;2022-12-04T17:25:23;99259.94;;;8.17;100.00
48352;BME280;34163;49.314;6.752;2022-12-04T17:27:54;99261.69;;;8.16;100.00
48352;BME280;34163;49.314;6.752;2022-12-04T17:30:19;99269.53;;;8.18;100.00
48352;BME280;34163;49.314;6.752;2022-12-04T17:32:45;99276.63;;;8.17;100.00
48352;BME280;34163;49.314;6.752;2022-12-04T17:35:17;99283.63;;;8.18;100.00
48352;BME280;34163;49.314;6.752;2022-12-04T17:37:42;99273.97;;;8.17;100.00
48352;BME280;34163;49.314;6.752;2022-12-04T17:40:08;99278.41;;;8.17;100.00
48352;BME280;34163;49.314;6.752;2022-12-04T17:42:38;99276.63;;;8.17;100.00
48352;BME280;34163;49.314;6.752;2022-12-04T17:45:04;99280.03;;;8.19;100.00
48352;BME280;34163;49.314;6.752;2022-12-04T17:47:35;99283.63;;;8.18;100.00
48352;BME280;34163;49.314;6.752;2022-12-04T17:50:01;99283.63;;;8.18;100.00
48352;BME280;34163;49.314;6.752;2022-12-04T17:52:29;99282.75;;;8.18;100.00
48352;BME280;34163;49.314;6.752;2022-12-04T17:54:55;99281.91;;;8.17;100.00
48352;BME280;34163;49.314;6.752;2022-12-04T17:57:20;99283.63;;;8.18;100.00
48352;BME280;34163;49.314;6.752;2022-12-04T17:59:46;99281.91;;;8.17;100.00
48352;BME280;34163;49.314;6.752;2022-12-04T18:02:12;99283.63;;;8.18;100.00
48352;BME280;34163;49.314;6.752;2022-12-04T18:04:37;99283.69;;;8.17;100.00
48352;BME280;34163;49.314;6.752;2022-12-04T18:07:03;99290.59;;;8.19;100.00
48352;BME280;34163;49.314;6.752;2022-12-04T18:09:28;99288.03;;;8.18;100.00
48352;BME280;34163;49.314;6.752;2022-12-04T18:11:53;99284.47;;;8.19;100.00
48352;BME280;34163;49.314;6.752;2022-12-04T18:14:21;99284.47;;;8.19;100.00
48352;BME280;34163;49.314;6.752;2022-12-04T18:16:48;99287.06;;;8.21;100.00
48352;BME280;34163;49.314;6.752;2022-12-04T18:19:17;99285.31;;;8.19;100.00
48352;BME280;34163;49.314;6.752;2022-12-04T18:21:45;99281.78;;;8.21;100.00
48352;BME280;34163;49.314;6.752;2022-12-04T18:24:10;99285.31;;;8.19;100.00
48352;BME280;34163;49.314;6.752;2022-12-04T18:26:37;99282.69;;;8.19;100.00
48352;BME280;34163;49.314;6.752;2022-12-04T18:29:08;99291.38;;;8.22;100.00
48352;BME280;34163;49.314;6.752;2022-12-04T18:31:34;99287.06;;;8.21;100.00
48352;BME280;34163;49.314;6.752;2022-12-04T18:34:00;99293.19;;;8.21;100.00
48352;BME280;34163;49.314;6.752;2022-12-04T18:36:26;99301.94;;;8.22;100.00
48352;BME280;34163;49.314;6.752;2022-12-04T18:38:55;99291.38;;;8.22;100.00
48352;BME280;34163;49.314;6.752;2022-12-04T18:41:20;99296.66;;;8.22;100.00
48352;BME280;34163;49.314;6.752;2022-12-04T18:43:49;99299.31;;;8.22;100.00
48352;BME280;34163;49.314;6.752;2022-12-04T18:46:24;99303.69;;;8.23;100.00
48352;BME280;34163;49.314;6.752;2022-12-04T18:48:51;99308.03;;;8.24;100.00
48352;BME280;34163;49.314;6.752;2022-12-04T18:53:42;99305.41;;;8.24;100.00
48352;BME280;34163;49.314;6.752;2022-12-04T18:56:10;99312.44;;;8.23;100.00
48352;BME280;34163;49.314;6.752;2022-12-04T18:58:35;99313.31;;;8.24;100.00
48352;BME280;34163;49.314;6.752;2022-12-04T19:01:05;99312.44;;;8.23;100.00
48352;BME280;34163;49.314;6.752;2022-12-04T19:03:43;99310.69;;;8.24;100.00
48352;BME280;34163;49.314;6.752;2022-12-04T19:06:17;99315.91;;;8.25;100.00
48352;BME280;34163;49.314;6.752;2022-12-04T19:08:43;99317.66;;;8.25;100.00
48352;BME280;34163;49.314;6.752;2022-12-04T19:11:09;99320.28;;;8.25;100.00
48352;BME280;34163;49.314;6.752;2022-12-04T19:13:35;99315.91;;;8.25;100.00
48352;BME280;34163;49.314;6.752;2022-12-04T19:16:01;99322.03;;;8.26;100.00
48352;BME280;34163;49.314;6.752;2022-12-04T19:18:26;99322.03;;;8.26;100.00
48352;BME280;34163;49.314;6.752;2022-12-04T19:20:52;99324.66;;;8.26;100.00
48352;BME280;34163;49.314;6.752;2022-12-04T19:23:19;99331.72;;;8.25;100.00
48352;BME280;34163;49.314;6.752;2022-12-04T19:25:52;99337.88;;;8.26;100.00
48352;BME280;34163;49.314;6.752;2022-12-04T19:28:21;99329.03;;;8.27;100.00
48352;BME280;34163;49.314;6.752;2022-12-04T19:30:46;99339.59;;;8.27;100.00
48352;BME280;34163;49.314;6.752;2022-12-04T19:33:11;99344.00;;;8.26;100.00
48352;BME280;34163;49.314;6.752;2022-12-04T19:35:54;99345.72;;;8.27;100.00
48352;BME280;34163;49.314;6.752;2022-12-04T19:38:40;99343.09;;;8.27;100.00
48352;BME280;34163;49.314;6.752;2022-12-04T19:43:33;99352.78;;;8.27;100.00
48352;BME280;34163;49.314;6.752;2022-12-04T19:46:22;99348.41;;;8.26;100.00
48352;BME280;34163;49.314;6.752;2022-12-04T19:48:47;99349.28;;;8.26;100.00
48352;BME280;34163;49.314;6.752;2022-12-04T19:51:14;99353.69;;;8.26;100.00
48352;BME280;34163;49.314;6.752;2022-12-04T19:53:40;99352.78;;;8.27;100.00
48352;BME280;34163;49.314;6.752;2022-12-04T19:56:10;99357.13;;;8.28;100.00
48352;BME280;34163;49.314;6.752;2022-12-04T19:58:35;99353.69;;;8.26;100.00
48352;BME280;34163;49.314;6.752;2022-12-04T20:01:01;99355.44;;;8.27;100.00
48352;BME280;34163;49.314;6.752;2022-12-04T20:03:27;99360.66;;;8.28;100.00
48352;BME280;34163;49.314;6.752;2022-12-04T20:05:52;99357.06;;;8.29;100.00
48352;BME280;34163;49.314;6.752;2022-12-04T20:08:25;99358.84;;;8.29;100.00
48352;BME280;34163;49.314;6.752;2022-12-04T20:10:50;99362.41;;;8.28;100.00
48352;BME280;34163;49.314;6.752;2022-12-04T20:13:15;99361.56;;;8.27;100.00
48352;BME280;34163;49.314;6.752;2022-12-04T20:15:41;99358.00;;;8.28;100.00
48352;BME280;34163;49.314;6.752;2022-12-04T20:18:06;99367.69;;;8.28;100.00
48352;BME280;34163;49.314;6.752;2022-12-04T20:20:33;99361.56;;;8.27;100.00
48352;BME280;34163;49.314;6.752;2022-12-04T20:23:01;99357.13;;;8.28;100.00
48352;BME280;34163;49.314;6.752;2022-12-04T20:25:29;99364.13;;;8.29;100.00
48352;BME280;34163;49.314;6.752;2022-12-04T20:27:54;99364.13;;;8.29;100.00
48352;BME280;34163;49.314;6.752;2022-12-04T20:30:19;99362.41;;;8.28;100.00
48352;BME280;34163;49.314;6.752;2022-12-04T20:32:45;99354.44;;;8.29;100.00
48352;BME280;34163;49.314;6.752;2022-12-04T20:35:10;99357.94;;;8.30;100.00
48352;BME280;34163;49.314;6.752;2022-12-04T20:37:35;99365.88;;;8.30;100.00
48352;BME280;34163;49.314;6.752;2022-12-04T20:40:02;99354.44;;;8.29;100.00
48352;BME280;34163;49.314;6.752;2022-12-04T20:42:28;99359.75;;;8.28;100.00
48352;BME280;34163;49.314;6.752;2022-12-04T20:44:53;99358.84;;;8.29;100.00
48352;BME280;34163;49.314;6.752;2022-12-04T20:47:22;99354.44;;;8.29;100.00
48352;BME280;34163;49.314;6.752;2022-12-04T20:49:49;99354.50;;;8.28;100.00
48352;BME280;34163;49.314;6.752;2022-12-04T20:52:23;99359.75;;;8.28;100.00
48352;BME280;34163;49.314;6.752;2022-12-04T20:54:48;99358.00;;;8.28;100.00
48352;BME280;34163;49.314;6.752;2022-12-04T20:57:13;99359.75;;;8.28;100.00
48352;BME280;34163;49.314;6.752;2022-12-04T20:59:39;99363.28;;;8.28;100.00
48352;BME280;34163;49.314;6.752;2022-12-04T21:02:04;99364.13;;;8.29;100.00
48352;BME280;34163;49.314;6.752;2022-12-04T21:04:29;99357.13;;;8.28;100.00
48352;BME280;34163;49.314;6.752;2022-12-04T21:06:55;99357.13;;;8.28;100.00
48352;BME280;34163;49.314;6.752;2022-12-04T21:09:21;99357.13;;;8.28;100.00
48352;BME280;34163;49.314;6.752;2022-12-04T21:11:48;99356.28;;;8.27;100.00
48352;BME280;34163;49.314;6.752;2022-12-04T21:14:16;99354.44;;;8.29;100.00
48352;BME280;34163;49.314;6.752;2022-12-04T21:17:00;99361.44;;;8.30;100.00
48352;BME280;34163;49.314;6.752;2022-12-04T21:19:25;99356.22;;;8.29;100.00
48352;BME280;34163;49.314;6.752;2022-12-04T21:21:51;99364.13;;;8.29;100.00
48352;BME280;34163;49.314;6.752;2022-12-04T21:24:17;99355.38;;;8.28;100.00
48352;BME280;34163;49.314;6.752;2022-12-04T21:26:43;99358.84;;;8.29;100.00
48352;BME280;34163;49.314;6.752;2022-12-04T21:29:08;99360.59;;;8.30;100.00
48352;BME280;34163;49.314;6.752;2022-12-04T21:31:34;99362.41;;;8.28;100.00
48352;BME280;34163;49.314;6.752;2022-12-04T21:34:01;99365.94;;;8.28;100.00
48352;BME280;34163;49.314;6.752;2022-12-04T21:36:26;99363.28;;;8.28;100.00
48352;BME280;34163;49.314;6.752;2022-12-04T21:38:55;99364.13;;;8.29;100.00
48352;BME280;34163;49.314;6.752;2022-12-04T21:41:21;99361.56;;;8.27;100.00
48352;BME280;34163;49.314;6.752;2022-12-04T21:44:09;99366.78;;;8.29;100.00
48352;BME280;34163;49.314;6.752;2022-12-04T21:46:35;99369.41;;;8.29;100.00
48352;BME280;34163;49.314;6.752;2022-12-04T21:49:00;99366.78;;;8.29;100.00
48352;BME280;34163;49.314;6.752;2022-12-04T21:51:26;99371.16;;;8.30;100.00
48352;BME280;34163;49.314;6.752;2022-12-04T21:53:51;99382.56;;;8.30;100.00
48352;BME280;34163;49.314;6.752;2022-12-04T21:56:18;99382.63;;;8.29;100.00
48352;BME280;34163;49.314;6.752;2022-12-04T21:58:47;99387.91;;;8.29;100.00
48352;BME280;34163;49.314;6.752;2022-12-04T22:01:13;99386.97;;;8.30;100.00
48352;BME280;34163;49.314;6.752;2022-12-04T22:03:39;99386.97;;;8.30;100.00
48352;BME280;34163;49.314;6.752;2022-12-04T22:06:08;99390.53;;;8.29;100.00
48352;BME280;34163;49.314;6.752;2022-12-04T22:08:34;99391.38;;;8.29;100.00
48352;BME280;34163;49.314;6.752;2022-12-04T22:10:59;99391.38;;;8.29;100.00
48352;BME280;34163;49.314;6.752;2022-12-04T22:13:25;99393.97;;;8.31;100.00
48352;BME280;34163;49.314;6.752;2022-12-04T22:15:50;99393.97;;;8.31;100.00
48352;BME280;34163;49.314;6.752;2022-12-04T22:18:17;99392.25;;;8.30;100.00
48352;BME280;34163;49.314;6.752;2022-12-04T22:20:42;99391.38;;;8.29;100.00
48352;BME280;34163;49.314;6.752;2022-12-04T22:23:08;99404.53;;;8.31;100.00
48352;BME280;34163;49.314;6.752;2022-12-04T22:25:34;99405.47;;;8.30;100.00
48352;BME280;34163;49.314;6.752;2022-12-04T22:28:01;99405.47;;;8.30;100.00
48352;BME280;34163;49.314;6.752;2022-12-04T22:30:27;99402.81;;;8.30;100.00
48352;BME280;34163;49.314;6.752;2022-12-04T22:32:52;99404.53;;;8.31;100.00
48352;BME280;34163;49.314;6.752;2022-12-04T22:35:18;99401.94;;;8.29;100.00
48352;BME280;34163;49.314;6.752;2022-12-04T22:37:43;99403.69;;;8.30;100.00
48352;BME280;34163;49.314;6.752;2022-12-04T22:40:09;99410.75;;;8.30;100.00
48352;BME280;34163;49.314;6.752;2022-12-04T22:42:35;99408.09;;;8.30;100.00
48352;BME280;34163;49.314;6.752;2022-12-04T22:45:00;99411.66;;;8.29;100.00
48352;BME280;34163;49.314;6.752;2022-12-04T22:47:25;99403.69;;;8.30;100.00